sensor_id;sensor_type;location;lat;lon;timestamp;P1;durP1;ratioP1;P2;durP2;ratioP2
61960;SDS011;47923;42.506;24.192;2023-07-22T00:01:18;8.10;;;5.22;;
61960;SDS011;47923;42.506;24.192;2023-07-22T00:03:44;7.65;;;4.50;;
61960;SDS011;47923;42.506;24.192;2023-07-22T00:06:10;9.93;;;5.05;;
61960;SDS011;47923;42.506;24.192;2023-07-22T00:08:36;8.00;;;4.60;;
61960;SDS011;47923;42.506;24.192;2023-07-22T00:11:03;8.77;;;4.55;;
61960;SDS011;47923;42.506;24.192;2023-07-22T00:13:29;12.57;;;6.10;;
61960;SDS011;47923;42.506;24.192;2023-07-22T00:15:55;12.88;;;5.65;;
61960;SDS011;47923;42.506;24.192;2023-07-22T00:18:21;8.70;;;5.10;;
61960;SDS011;47923;42.506;24.192;2023-07-22T00:20:47;11.18;;;5.63;;
61960;SDS011;47923;42.506;24.192;2023-07-22T00:23:12;8.43;;;5.05;;
61960;SDS011;47923;42.506;24.192;2023-07-22T00:25:40;10.50;;;5.00;;
61960;SDS011;47923;42.506;24.192;2023-07-22T00:28:06;9.43;;;5.10;;
61960;SDS011;47923;42.506;24.192;2023-07-22T00:30:31;8.40;;;5.13;;
61960;SDS011;47923;42.506;24.192;2023-07-22T00:32:57;9.68;;;5.60;;
61960;SDS011;47923;42.506;24.192;2023-07-22T00:35:22;9.75;;;5.57;;
61960;SDS011;47923;42.506;24.192;2023-07-22T00:37:48;9.10;;;5.40;;
61960;SDS011;47923;42.506;24.192;2023-07-22T00:40:13;9.05;;;5.00;;
61960;SDS011;47923;42.506;24.192;2023-07-22T00:42:39;8.15;;;4.70;;
61960;SDS011;47923;42.506;24.192;2023-07-22T00:45:05;9.82;;;4.80;;
61960;SDS011;47923;42.506;24.192;2023-07-22T00:47:32;8.38;;;4.47;;
61960;SDS011;47923;42.506;24.192;2023-07-22T00:49:59;10.52;;;5.75;;
61960;SDS011;47923;42.506;24.192;2023-07-22T00:52:28;11.40;;;5.38;;
61960;SDS011;47923;42.506;24.192;2023-07-22T00:54:53;9.75;;;5.75;;
61960;SDS011;47923;42.506;24.192;2023-07-22T00:57:20;12.43;;;6.03;;
61960;SDS011;47923;42.506;24.192;2023-07-22T00:59:46;10.73;;;4.75;;
61960;SDS011;47923;42.506;24.192;2023-07-22T01:02:11;8.23;;;5.45;;
61960;SDS011;47923;42.506;24.192;2023-07-22T01:04:37;11.38;;;5.57;;
61960;SDS011;47923;42.506;24.192;2023-07-22T01:07:05;9.43;;;5.38;;
61960;SDS011;47923;42.506;24.192;2023-07-22T01:09:36;9.75;;;5.55;;
61960;SDS011;47923;42.506;24.192;2023-07-22T01:12:03;9.38;;;5.40;;
61960;SDS011;47923;42.506;24.192;2023-07-22T01:14:31;10.38;;;5.60;;
61960;SDS011;47923;42.506;24.192;2023-07-22T01:17:04;8.20;;;5.30;;
61960;SDS011;47923;42.506;24.192;2023-07-22T01:19:31;9.68;;;5.18;;
61960;SDS011;47923;42.506;24.192;2023-07-22T01:22:02;9.48;;;5.18;;
61960;SDS011;47923;42.506;24.192;2023-07-22T01:24:28;8.40;;;4.85;;
61960;SDS011;47923;42.506;24.192;2023-07-22T01:26:54;10.70;;;4.90;;
61960;SDS011;47923;42.506;24.192;2023-07-22T01:29:21;9.40;;;5.60;;
61960;SDS011;47923;42.506;24.192;2023-07-22T01:31:50;10.50;;;5.93;;
61960;SDS011;47923;42.506;24.192;2023-07-22T01:34:17;10.65;;;5.63;;
61960;SDS011;47923;42.506;24.192;2023-07-22T01:36:44;10.35;;;5.45;;
61960;SDS011;47923;42.506;24.192;2023-07-22T01:39:11;9.13;;;5.05;;
61960;SDS011;47923;42.506;24.192;2023-07-22T01:41:36;8.40;;;5.13;;
61960;SDS011;47923;42.506;24.192;2023-07-22T01:44:02;9.00;;;5.78;;
61960;SDS011;47923;42.506;24.192;2023-07-22T01:46:28;9.18;;;5.28;;
61960;SDS011;47923;42.506;24.192;2023-07-22T01:48:55;10.65;;;4.97;;
61960;SDS011;47923;42.506;24.192;2023-07-22T01:51:20;9.10;;;5.68;;
61960;SDS011;47923;42.506;24.192;2023-07-22T01:53:46;10.63;;;6.47;;
61960;SDS011;47923;42.506;24.192;2023-07-22T01:56:11;9.52;;;5.68;;
61960;SDS011;47923;42.506;24.192;2023-07-22T01:58:36;10.85;;;6.20;;
61960;SDS011;47923;42.506;24.192;2023-07-22T02:01:02;9.80;;;5.80;;
61960;SDS011;47923;42.506;24.192;2023-07-22T02:03:27;13.32;;;6.93;;
61960;SDS011;47923;42.506;24.192;2023-07-22T02:05:53;9.70;;;6.20;;
61960;SDS011;47923;42.506;24.192;2023-07-22T02:08:19;9.43;;;6.25;;
61960;SDS011;47923;42.506;24.192;2023-07-22T02:10:45;11.20;;;6.40;;
61960;SDS011;47923;42.506;24.192;2023-07-22T02:13:11;10.80;;;6.10;;
61960;SDS011;47923;42.506;24.192;2023-07-22T02:15:36;9.90;;;6.00;;
61960;SDS011;47923;42.506;24.192;2023-07-22T02:18:02;9.98;;;5.90;;
61960;SDS011;47923;42.506;24.192;2023-07-22T02:20:27;11.32;;;5.80;;
61960;SDS011;47923;42.506;24.192;2023-07-22T02:22:54;10.23;;;6.90;;
61960;SDS011;47923;42.506;24.192;2023-07-22T02:25:20;14.43;;;6.88;;
61960;SDS011;47923;42.506;24.192;2023-07-22T02:27:45;9.27;;;5.60;;
61960;SDS011;47923;42.506;24.192;2023-07-22T02:30:11;9.13;;;5.97;;
61960;SDS011;47923;42.506;24.192;2023-07-22T02:32:40;11.50;;;6.25;;
61960;SDS011;47923;42.506;24.192;2023-07-22T02:35:06;7.45;;;4.95;;
61960;SDS011;47923;42.506;24.192;2023-07-22T02:37:33;15.18;;;5.60;;
61960;SDS011;47923;42.506;24.192;2023-07-22T02:39:59;11.02;;;6.30;;
61960;SDS011;47923;42.506;24.192;2023-07-22T02:42:25;9.30;;;5.68;;
61960;SDS011;47923;42.506;24.192;2023-07-22T02:44:51;9.95;;;5.30;;
61960;SDS011;47923;42.506;24.192;2023-07-22T02:47:17;9.15;;;5.82;;
61960;SDS011;47923;42.506;24.192;2023-07-22T02:49:43;9.77;;;5.47;;
61960;SDS011;47923;42.506;24.192;2023-07-22T02:52:08;10.68;;;6.30;;
61960;SDS011;47923;42.506;24.192;2023-07-22T02:54:39;8.13;;;5.85;;
61960;SDS011;47923;42.506;24.192;2023-07-22T02:57:06;9.50;;;5.47;;
61960;SDS011;47923;42.506;24.192;2023-07-22T02:59:32;10.07;;;5.80;;
61960;SDS011;47923;42.506;24.192;2023-07-22T03:01:58;9.85;;;6.10;;
61960;SDS011;47923;42.506;24.192;2023-07-22T03:04:24;10.60;;;6.28;;
61960;SDS011;47923;42.506;24.192;2023-07-22T03:06:50;9.90;;;6.20;;
61960;SDS011;47923;42.506;24.192;2023-07-22T03:09:15;10.60;;;6.57;;
61960;SDS011;47923;42.506;24.192;2023-07-22T03:11:41;10.02;;;5.88;;
61960;SDS011;47923;42.506;24.192;2023-07-22T03:14:06;11.15;;;6.15;;
61960;SDS011;47923;42.506;24.192;2023-07-22T03:16:32;12.95;;;6.50;;
61960;SDS011;47923;42.506;24.192;2023-07-22T03:18:57;9.77;;;6.57;;
61960;SDS011;47923;42.506;24.192;2023-07-22T03:21:23;12.95;;;6.60;;
61960;SDS011;47923;42.506;24.192;2023-07-22T03:23:49;7.85;;;6.15;;
61960;SDS011;47923;42.506;24.192;2023-07-22T03:26:16;10.23;;;6.10;;
61960;SDS011;47923;42.506;24.192;2023-07-22T03:28:43;10.07;;;5.68;;
61960;SDS011;47923;42.506;24.192;2023-07-22T03:31:08;9.82;;;6.95;;
61960;SDS011;47923;42.506;24.192;2023-07-22T03:33:34;11.10;;;5.60;;
61960;SDS011;47923;42.506;24.192;2023-07-22T03:36:00;10.35;;;5.72;;
61960;SDS011;47923;42.506;24.192;2023-07-22T03:38:26;14.02;;;6.03;;
61960;SDS011;47923;42.506;24.192;2023-07-22T03:40:51;9.32;;;5.75;;
61960;SDS011;47923;42.506;24.192;2023-07-22T03:43:20;10.50;;;5.85;;
61960;SDS011;47923;42.506;24.192;2023-07-22T03:45:45;10.55;;;6.22;;
61960;SDS011;47923;42.506;24.192;2023-07-22T03:48:11;9.07;;;5.47;;
61960;SDS011;47923;42.506;24.192;2023-07-22T03:50:36;11.80;;;5.78;;
61960;SDS011;47923;42.506;24.192;2023-07-22T03:53:02;9.07;;;5.72;;
61960;SDS011;47923;42.506;24.192;2023-07-22T03:55:27;10.30;;;5.60;;
61960;SDS011;47923;42.506;24.192;2023-07-22T03:57:53;9.43;;;5.65;;
61960;SDS011;47923;42.506;24.192;2023-07-22T04:00:19;9.95;;;5.68;;
61960;SDS011;47923;42.506;24.192;2023-07-22T04:02:49;8.45;;;4.93;;
61960;SDS011;47923;42.506;24.192;2023-07-22T04:05:15;11.38;;;6.20;;
61960;SDS011;47923;42.506;24.192;2023-07-22T04:07:41;14.55;;;5.43;;
61960;SDS011;47923;42.506;24.192;2023-07-22T04:10:06;9.30;;;5.30;;
61960;SDS011;47923;42.506;24.192;2023-07-22T04:12:32;9.80;;;4.88;;
61960;SDS011;47923;42.506;24.192;2023-07-22T04:14:58;9.18;;;5.70;;
61960;SDS011;47923;42.506;24.192;2023-07-22T04:17:23;10.27;;;5.47;;
61960;SDS011;47923;42.506;24.192;2023-07-22T04:19:50;9.80;;;5.25;;
61960;SDS011;47923;42.506;24.192;2023-07-22T04:22:17;9.10;;;4.75;;
61960;SDS011;47923;42.506;24.192;2023-07-22T04:24:43;10.20;;;5.13;;
61960;SDS011;47923;42.506;24.192;2023-07-22T04:27:08;10.85;;;5.55;;
61960;SDS011;47923;42.506;24.192;2023-07-22T04:29:34;10.80;;;4.50;;
61960;SDS011;47923;42.506;24.192;2023-07-22T04:32:00;8.55;;;4.80;;
61960;SDS011;47923;42.506;24.192;2023-07-22T04:34:30;12.70;;;4.95;;
61960;SDS011;47923;42.506;24.192;2023-07-22T04:36:59;9.00;;;4.78;;
61960;SDS011;47923;42.506;24.192;2023-07-22T04:39:24;10.52;;;5.25;;
61960;SDS011;47923;42.506;24.192;2023-07-22T04:41:51;9.52;;;4.80;;
61960;SDS011;47923;42.506;24.192;2023-07-22T04:44:17;9.23;;;4.65;;
61960;SDS011;47923;42.506;24.192;2023-07-22T04:46:44;8.70;;;4.40;;
61960;SDS011;47923;42.506;24.192;2023-07-22T04:49:09;8.35;;;3.83;;
61960;SDS011;47923;42.506;24.192;2023-07-22T04:51:35;6.63;;;4.13;;
61960;SDS011;47923;42.506;24.192;2023-07-22T04:54:00;7.70;;;4.00;;
61960;SDS011;47923;42.506;24.192;2023-07-22T04:56:26;7.10;;;4.28;;
61960;SDS011;47923;42.506;24.192;2023-07-22T04:58:52;7.95;;;4.50;;
61960;SDS011;47923;42.506;24.192;2023-07-22T05:01:17;8.93;;;4.88;;
61960;SDS011;47923;42.506;24.192;2023-07-22T05:03:43;10.93;;;4.90;;
61960;SDS011;47923;42.506;24.192;2023-07-22T05:06:09;7.68;;;3.95;;
61960;SDS011;47923;42.506;24.192;2023-07-22T05:08:34;8.27;;;4.78;;
61960;SDS011;47923;42.506;24.192;2023-07-22T05:11:03;9.38;;;4.47;;
61960;SDS011;47923;42.506;24.192;2023-07-22T05:13:29;8.63;;;4.47;;
61960;SDS011;47923;42.506;24.192;2023-07-22T05:15:54;7.28;;;4.72;;
61960;SDS011;47923;42.506;24.192;2023-07-22T05:18:22;7.53;;;4.32;;
61960;SDS011;47923;42.506;24.192;2023-07-22T05:20:47;8.27;;;4.50;;
61960;SDS011;47923;42.506;24.192;2023-07-22T05:23:13;11.15;;;4.60;;
61960;SDS011;47923;42.506;24.192;2023-07-22T05:25:38;9.45;;;3.88;;
61960;SDS011;47923;42.506;24.192;2023-07-22T05:28:04;7.78;;;4.00;;
61960;SDS011;47923;42.506;24.192;2023-07-22T05:30:30;6.00;;;3.60;;
61960;SDS011;47923;42.506;24.192;2023-07-22T05:32:56;7.10;;;3.92;;
61960;SDS011;47923;42.506;24.192;2023-07-22T05:35:22;9.23;;;4.30;;
61960;SDS011;47923;42.506;24.192;2023-07-22T05:37:48;7.10;;;3.65;;
61960;SDS011;47923;42.506;24.192;2023-07-22T05:40:14;7.43;;;3.70;;
61960;SDS011;47923;42.506;24.192;2023-07-22T05:42:40;8.93;;;3.72;;
61960;SDS011;47923;42.506;24.192;2023-07-22T05:45:06;6.78;;;3.58;;
61960;SDS011;47923;42.506;24.192;2023-07-22T05:47:32;6.53;;;3.70;;
61960;SDS011;47923;42.506;24.192;2023-07-22T05:49:58;8.48;;;3.78;;
61960;SDS011;47923;42.506;24.192;2023-07-22T05:52:23;7.35;;;3.95;;
61960;SDS011;47923;42.506;24.192;2023-07-22T05:54:49;7.65;;;4.10;;
61960;SDS011;47923;42.506;24.192;2023-07-22T05:57:15;9.35;;;3.80;;
61960;SDS011;47923;42.506;24.192;2023-07-22T05:59:40;9.85;;;3.97;;
61960;SDS011;47923;42.506;24.192;2023-07-22T06:02:06;6.15;;;3.40;;
61960;SDS011;47923;42.506;24.192;2023-07-22T06:04:33;6.18;;;3.08;;
61960;SDS011;47923;42.506;24.192;2023-07-22T06:06:58;7.35;;;3.47;;
61960;SDS011;47923;42.506;24.192;2023-07-22T06:09:24;6.35;;;3.40;;
61960;SDS011;47923;42.506;24.192;2023-07-22T06:11:50;7.55;;;3.20;;
61960;SDS011;47923;42.506;24.192;2023-07-22T06:14:15;7.63;;;3.20;;
61960;SDS011;47923;42.506;24.192;2023-07-22T06:16:41;7.28;;;3.40;;
61960;SDS011;47923;42.506;24.192;2023-07-22T06:19:07;9.52;;;3.63;;
61960;SDS011;47923;42.506;24.192;2023-07-22T06:21:33;8.38;;;3.60;;
61960;SDS011;47923;42.506;24.192;2023-07-22T06:23:58;6.50;;;3.03;;
61960;SDS011;47923;42.506;24.192;2023-07-22T06:26:24;8.88;;;3.80;;
61960;SDS011;47923;42.506;24.192;2023-07-22T06:28:50;8.05;;;3.47;;
61960;SDS011;47923;42.506;24.192;2023-07-22T06:31:16;7.55;;;3.60;;
61960;SDS011;47923;42.506;24.192;2023-07-22T06:33:43;9.82;;;3.92;;
61960;SDS011;47923;42.506;24.192;2023-07-22T06:36:09;8.40;;;3.83;;
61960;SDS011;47923;42.506;24.192;2023-07-22T06:38:34;9.02;;;3.85;;
61960;SDS011;47923;42.506;24.192;2023-07-22T06:41:00;12.48;;;4.20;;
61960;SDS011;47923;42.506;24.192;2023-07-22T06:43:26;8.73;;;3.67;;
61960;SDS011;47923;42.506;24.192;2023-07-22T06:45:51;7.10;;;3.30;;
61960;SDS011;47923;42.506;24.192;2023-07-22T06:48:17;5.57;;;3.38;;
61960;SDS011;47923;42.506;24.192;2023-07-22T06:50:49;7.75;;;3.70;;
61960;SDS011;47923;42.506;24.192;2023-07-22T06:53:15;8.73;;;3.80;;
61960;SDS011;47923;42.506;24.192;2023-07-22T06:55:47;6.63;;;3.53;;
61960;SDS011;47923;42.506;24.192;2023-07-22T06:58:14;8.57;;;3.88;;
61960;SDS011;47923;42.506;24.192;2023-07-22T07:00:40;7.13;;;3.50;;
61960;SDS011;47923;42.506;24.192;2023-07-22T07:03:05;8.00;;;3.45;;
61960;SDS011;47923;42.506;24.192;2023-07-22T07:05:31;9.00;;;4.13;;
61960;SDS011;47923;42.506;24.192;2023-07-22T07:07:57;6.82;;;3.38;;
61960;SDS011;47923;42.506;24.192;2023-07-22T07:10:23;7.72;;;3.50;;
61960;SDS011;47923;42.506;24.192;2023-07-22T07:12:48;6.00;;;3.42;;
61960;SDS011;47923;42.506;24.192;2023-07-22T07:15:14;9.30;;;4.07;;
61960;SDS011;47923;42.506;24.192;2023-07-22T07:40:18;7.30;;;3.40;;
61960;SDS011;47923;42.506;24.192;2023-07-22T07:42:43;9.27;;;3.92;;
61960;SDS011;47923;42.506;24.192;2023-07-22T07:45:09;10.13;;;4.22;;
61960;SDS011;47923;42.506;24.192;2023-07-22T07:47:35;7.38;;;3.70;;
61960;SDS011;47923;42.506;24.192;2023-07-22T07:50:03;8.82;;;4.15;;
61960;SDS011;47923;42.506;24.192;2023-07-22T07:52:29;8.77;;;3.80;;
61960;SDS011;47923;42.506;24.192;2023-07-22T07:54:54;9.25;;;3.88;;
61960;SDS011;47923;42.506;24.192;2023-07-22T07:57:20;5.60;;;3.40;;
61960;SDS011;47923;42.506;24.192;2023-07-22T07:59:46;9.63;;;3.83;;
61960;SDS011;47923;42.506;24.192;2023-07-22T08:02:11;6.72;;;3.10;;
61960;SDS011;47923;42.506;24.192;2023-07-22T08:04:37;8.93;;;3.92;;
61960;SDS011;47923;42.506;24.192;2023-07-22T08:07:05;7.55;;;3.90;;
61960;SDS011;47923;42.506;24.192;2023-07-22T08:09:31;11.07;;;3.85;;
61960;SDS011;47923;42.506;24.192;2023-07-22T08:11:57;8.68;;;3.60;;
61960;SDS011;47923;42.506;24.192;2023-07-22T08:14:25;8.70;;;3.38;;
61960;SDS011;47923;42.506;24.192;2023-07-22T08:16:51;9.50;;;3.40;;
61960;SDS011;47923;42.506;24.192;2023-07-22T08:19:17;6.93;;;3.30;;
61960;SDS011;47923;42.506;24.192;2023-07-22T08:21:43;7.63;;;3.33;;
61960;SDS011;47923;42.506;24.192;2023-07-22T08:24:08;9.98;;;3.70;;
61960;SDS011;47923;42.506;24.192;2023-07-22T08:26:34;8.95;;;3.80;;
61960;SDS011;47923;42.506;24.192;2023-07-22T08:29:05;8.40;;;3.65;;
61960;SDS011;47923;42.506;24.192;2023-07-22T08:31:31;10.05;;;6.45;;
61960;SDS011;47923;42.506;24.192;2023-07-22T08:34:09;9.18;;;3.92;;
61960;SDS011;47923;42.506;24.192;2023-07-22T08:36:45;9.57;;;4.18;;
61960;SDS011;47923;42.506;24.192;2023-07-22T08:39:23;10.38;;;4.40;;
61960;SDS011;47923;42.506;24.192;2023-07-22T08:42:01;9.02;;;3.72;;
61960;SDS011;47923;42.506;24.192;2023-07-22T08:44:42;10.32;;;3.97;;
61960;SDS011;47923;42.506;24.192;2023-07-22T08:47:19;8.50;;;4.40;;
61960;SDS011;47923;42.506;24.192;2023-07-22T08:49:52;13.10;;;4.38;;
61960;SDS011;47923;42.506;24.192;2023-07-22T08:52:26;10.63;;;4.20;;
61960;SDS011;47923;42.506;24.192;2023-07-22T08:54:52;8.85;;;3.90;;
61960;SDS011;47923;42.506;24.192;2023-07-22T08:57:18;8.18;;;3.65;;
61960;SDS011;47923;42.506;24.192;2023-07-22T08:59:44;8.38;;;3.95;;
61960;SDS011;47923;42.506;24.192;2023-07-22T09:02:12;11.55;;;3.92;;
61960;SDS011;47923;42.506;24.192;2023-07-22T09:04:38;8.00;;;3.47;;
61960;SDS011;47923;42.506;24.192;2023-07-22T09:07:06;10.40;;;4.22;;
61960;SDS011;47923;42.506;24.192;2023-07-22T09:09:33;9.18;;;4.03;;
61960;SDS011;47923;42.506;24.192;2023-07-22T09:11:59;9.90;;;3.80;;
61960;SDS011;47923;42.506;24.192;2023-07-22T09:14:25;9.13;;;3.88;;
61960;SDS011;47923;42.506;24.192;2023-07-22T09:16:51;7.93;;;3.70;;
61960;SDS011;47923;42.506;24.192;2023-07-22T09:19:17;9.10;;;3.78;;
61960;SDS011;47923;42.506;24.192;2023-07-22T09:21:42;10.18;;;4.22;;
61960;SDS011;47923;42.506;24.192;2023-07-22T09:24:22;6.57;;;3.67;;
61960;SDS011;47923;42.506;24.192;2023-07-22T09:26:49;9.38;;;4.10;;
61960;SDS011;47923;42.506;24.192;2023-07-22T09:29:15;8.38;;;3.78;;
61960;SDS011;47923;42.506;24.192;2023-07-22T09:31:50;9.65;;;3.75;;
61960;SDS011;47923;42.506;24.192;2023-07-22T09:34:17;8.35;;;4.20;;
61960;SDS011;47923;42.506;24.192;2023-07-22T09:36:52;10.63;;;3.50;;
61960;SDS011;47923;42.506;24.192;2023-07-22T09:39:20;9.57;;;3.97;;
61960;SDS011;47923;42.506;24.192;2023-07-22T09:41:46;12.65;;;4.70;;
61960;SDS011;47923;42.506;24.192;2023-07-22T09:44:11;11.93;;;4.15;;
61960;SDS011;47923;42.506;24.192;2023-07-22T09:46:37;10.52;;;4.03;;
61960;SDS011;47923;42.506;24.192;2023-07-22T09:49:04;9.93;;;4.60;;
61960;SDS011;47923;42.506;24.192;2023-07-22T09:51:33;10.65;;;4.00;;
61960;SDS011;47923;42.506;24.192;2023-07-22T09:54:01;10.13;;;4.18;;
61960;SDS011;47923;42.506;24.192;2023-07-22T09:56:28;11.52;;;4.47;;
61960;SDS011;47923;42.506;24.192;2023-07-22T09:58:54;12.35;;;4.82;;
61960;SDS011;47923;42.506;24.192;2023-07-22T10:01:21;10.38;;;4.55;;
61960;SDS011;47923;42.506;24.192;2023-07-22T10:03:55;10.68;;;4.30;;
61960;SDS011;47923;42.506;24.192;2023-07-22T10:06:23;11.38;;;4.93;;
61960;SDS011;47923;42.506;24.192;2023-07-22T10:08:51;10.82;;;4.43;;
61960;SDS011;47923;42.506;24.192;2023-07-22T10:11:17;13.23;;;4.75;;
61960;SDS011;47923;42.506;24.192;2023-07-22T10:13:43;9.20;;;4.07;;
61960;SDS011;47923;42.506;24.192;2023-07-22T10:16:10;15.63;;;5.30;;
61960;SDS011;47923;42.506;24.192;2023-07-22T10:18:37;13.60;;;4.90;;
61960;SDS011;47923;42.506;24.192;2023-07-22T10:21:06;12.15;;;4.63;;
61960;SDS011;47923;42.506;24.192;2023-07-22T10:23:34;13.27;;;4.43;;
61960;SDS011;47923;42.506;24.192;2023-07-22T10:26:01;12.98;;;4.95;;
61960;SDS011;47923;42.506;24.192;2023-07-22T10:28:28;13.00;;;4.85;;
61960;SDS011;47923;42.506;24.192;2023-07-22T10:30:54;13.35;;;5.07;;
61960;SDS011;47923;42.506;24.192;2023-07-22T10:33:22;13.52;;;5.10;;
61960;SDS011;47923;42.506;24.192;2023-07-22T10:38:33;12.23;;;4.88;;
61960;SDS011;47923;42.506;24.192;2023-07-22T10:41:11;13.82;;;4.60;;
61960;SDS011;47923;42.506;24.192;2023-07-22T10:43:42;12.48;;;4.68;;
61960;SDS011;47923;42.506;24.192;2023-07-22T10:46:19;14.48;;;4.38;;
61960;SDS011;47923;42.506;24.192;2023-07-22T10:49:06;12.18;;;4.93;;
61960;SDS011;47923;42.506;24.192;2023-07-22T10:51:38;15.10;;;4.67;;
61960;SDS011;47923;42.506;24.192;2023-07-22T10:54:10;15.18;;;5.30;;
61960;SDS011;47923;42.506;24.192;2023-07-22T10:59:02;16.38;;;5.63;;
61960;SDS011;47923;42.506;24.192;2023-07-22T11:04:10;13.98;;;5.88;;
61960;SDS011;47923;42.506;24.192;2023-07-22T11:11:52;25.20;;;6.50;;
61960;SDS011;47923;42.506;24.192;2023-07-22T11:14:24;16.45;;;5.70;;
61960;SDS011;47923;42.506;24.192;2023-07-22T11:16:51;15.57;;;5.18;;
61960;SDS011;47923;42.506;24.192;2023-07-22T11:19:44;14.18;;;5.28;;
61960;SDS011;47923;42.506;24.192;2023-07-22T11:22:15;17.92;;;6.40;;
61960;SDS011;47923;42.506;24.192;2023-07-22T11:24:41;17.98;;;6.50;;
61960;SDS011;47923;42.506;24.192;2023-07-22T11:27:07;17.88;;;6.38;;
61960;SDS011;47923;42.506;24.192;2023-07-22T11:29:35;15.85;;;5.38;;
61960;SDS011;47923;42.506;24.192;2023-07-22T11:32:01;19.25;;;5.72;;
61960;SDS011;47923;42.506;24.192;2023-07-22T11:34:28;21.00;;;6.10;;
61960;SDS011;47923;42.506;24.192;2023-07-22T11:36:55;18.52;;;6.03;;
61960;SDS011;47923;42.506;24.192;2023-07-22T11:39:22;16.08;;;5.45;;
61960;SDS011;47923;42.506;24.192;2023-07-22T11:41:50;13.65;;;5.53;;
61960;SDS011;47923;42.506;24.192;2023-07-22T11:44:17;15.88;;;5.35;;
61960;SDS011;47923;42.506;24.192;2023-07-22T11:47:04;20.20;;;5.63;;
61960;SDS011;47923;42.506;24.192;2023-07-22T11:49:33;23.60;;;6.07;;
61960;SDS011;47923;42.506;24.192;2023-07-22T11:54:28;18.00;;;6.70;;
61960;SDS011;47923;42.506;24.192;2023-07-22T11:56:55;16.77;;;6.13;;
61960;SDS011;47923;42.506;24.192;2023-07-22T11:59:34;17.88;;;6.07;;
61960;SDS011;47923;42.506;24.192;2023-07-22T12:02:00;21.27;;;6.55;;
61960;SDS011;47923;42.506;24.192;2023-07-22T12:04:27;20.63;;;6.15;;
61960;SDS011;47923;42.506;24.192;2023-07-22T12:06:52;17.52;;;6.00;;
61960;SDS011;47923;42.506;24.192;2023-07-22T12:09:18;16.25;;;5.32;;
61960;SDS011;47923;42.506;24.192;2023-07-22T12:11:44;19.55;;;6.13;;
61960;SDS011;47923;42.506;24.192;2023-07-22T12:14:10;23.85;;;6.35;;
61960;SDS011;47923;42.506;24.192;2023-07-22T12:16:38;24.77;;;6.47;;
61960;SDS011;47923;42.506;24.192;2023-07-22T12:19:07;12.52;;;5.20;;
61960;SDS011;47923;42.506;24.192;2023-07-22T12:21:34;18.90;;;6.32;;
61960;SDS011;47923;42.506;24.192;2023-07-22T12:24:00;15.30;;;5.40;;
61960;SDS011;47923;42.506;24.192;2023-07-22T12:26:26;18.70;;;6.32;;
61960;SDS011;47923;42.506;24.192;2023-07-22T12:28:51;16.23;;;5.60;;
61960;SDS011;47923;42.506;24.192;2023-07-22T12:31:17;18.67;;;6.18;;
61960;SDS011;47923;42.506;24.192;2023-07-22T12:33:43;22.35;;;5.72;;
61960;SDS011;47923;42.506;24.192;2023-07-22T12:36:08;19.15;;;5.20;;
61960;SDS011;47923;42.506;24.192;2023-07-22T12:38:34;20.00;;;5.50;;
61960;SDS011;47923;42.506;24.192;2023-07-22T12:41:00;20.25;;;6.13;;
61960;SDS011;47923;42.506;24.192;2023-07-22T12:43:26;19.00;;;5.45;;
61960;SDS011;47923;42.506;24.192;2023-07-22T12:45:52;19.23;;;5.60;;
61960;SDS011;47923;42.506;24.192;2023-07-22T12:48:17;18.40;;;5.75;;
61960;SDS011;47923;42.506;24.192;2023-07-22T12:50:43;20.83;;;5.90;;
61960;SDS011;47923;42.506;24.192;2023-07-22T12:53:09;18.65;;;7.05;;
61960;SDS011;47923;42.506;24.192;2023-07-22T12:55:35;19.98;;;6.20;;
61960;SDS011;47923;42.506;24.192;2023-07-22T12:58:00;20.67;;;5.97;;
61960;SDS011;47923;42.506;24.192;2023-07-22T13:00:26;19.63;;;6.25;;
61960;SDS011;47923;42.506;24.192;2023-07-22T13:02:52;21.75;;;6.22;;
61960;SDS011;47923;42.506;24.192;2023-07-22T13:05:18;19.90;;;6.78;;
61960;SDS011;47923;42.506;24.192;2023-07-22T13:07:44;20.48;;;5.57;;
61960;SDS011;47923;42.506;24.192;2023-07-22T13:10:12;18.63;;;6.25;;
61960;SDS011;47923;42.506;24.192;2023-07-22T13:12:41;14.37;;;5.60;;
61960;SDS011;47923;42.506;24.192;2023-07-22T13:15:06;18.15;;;5.85;;
61960;SDS011;47923;42.506;24.192;2023-07-22T13:17:32;20.25;;;5.80;;
61960;SDS011;47923;42.506;24.192;2023-07-22T13:19:58;16.98;;;5.28;;
61960;SDS011;47923;42.506;24.192;2023-07-22T13:22:23;15.82;;;5.68;;
61960;SDS011;47923;42.506;24.192;2023-07-22T13:24:49;17.42;;;5.85;;
61960;SDS011;47923;42.506;24.192;2023-07-22T13:27:14;20.08;;;5.97;;
61960;SDS011;47923;42.506;24.192;2023-07-22T13:29:40;16.35;;;5.72;;
61960;SDS011;47923;42.506;24.192;2023-07-22T13:32:05;20.38;;;6.88;;
61960;SDS011;47923;42.506;24.192;2023-07-22T13:34:31;13.82;;;5.90;;
61960;SDS011;47923;42.506;24.192;2023-07-22T13:36:57;17.92;;;6.40;;
61960;SDS011;47923;42.506;24.192;2023-07-22T13:39:22;18.75;;;5.65;;
61960;SDS011;47923;42.506;24.192;2023-07-22T13:41:48;26.77;;;7.05;;
61960;SDS011;47923;42.506;24.192;2023-07-22T13:44:15;21.30;;;6.22;;
61960;SDS011;47923;42.506;24.192;2023-07-22T13:46:41;18.90;;;5.93;;
61960;SDS011;47923;42.506;24.192;2023-07-22T13:49:06;17.77;;;5.85;;
61960;SDS011;47923;42.506;24.192;2023-07-22T13:51:32;33.40;;;7.32;;
61960;SDS011;47923;42.506;24.192;2023-07-22T13:53:57;19.20;;;5.53;;
61960;SDS011;47923;42.506;24.192;2023-07-22T13:56:23;18.27;;;6.65;;
61960;SDS011;47923;42.506;24.192;2023-07-22T13:58:49;19.40;;;6.55;;
61960;SDS011;47923;42.506;24.192;2023-07-22T14:01:14;16.55;;;6.00;;
61960;SDS011;47923;42.506;24.192;2023-07-22T14:03:40;16.27;;;5.85;;
61960;SDS011;47923;42.506;24.192;2023-07-22T14:06:06;18.45;;;6.05;;
61960;SDS011;47923;42.506;24.192;2023-07-22T14:08:31;20.13;;;5.90;;
61960;SDS011;47923;42.506;24.192;2023-07-22T14:10:58;19.20;;;6.38;;
61960;SDS011;47923;42.506;24.192;2023-07-22T14:13:24;18.77;;;6.10;;
61960;SDS011;47923;42.506;24.192;2023-07-22T14:15:49;15.52;;;6.05;;
61960;SDS011;47923;42.506;24.192;2023-07-22T14:18:14;19.80;;;5.72;;
61960;SDS011;47923;42.506;24.192;2023-07-22T14:20:42;15.90;;;5.85;;
61960;SDS011;47923;42.506;24.192;2023-07-22T14:23:08;16.95;;;5.88;;
61960;SDS011;47923;42.506;24.192;2023-07-22T14:25:34;13.57;;;5.07;;
61960;SDS011;47923;42.506;24.192;2023-07-22T14:27:59;21.45;;;5.53;;
61960;SDS011;47923;42.506;24.192;2023-07-22T14:30:25;17.50;;;5.90;;
61960;SDS011;47923;42.506;24.192;2023-07-22T14:32:50;17.08;;;5.80;;
61960;SDS011;47923;42.506;24.192;2023-07-22T14:35:15;19.25;;;5.82;;
61960;SDS011;47923;42.506;24.192;2023-07-22T14:37:41;20.65;;;6.15;;
61960;SDS011;47923;42.506;24.192;2023-07-22T14:40:06;18.17;;;6.07;;
61960;SDS011;47923;42.506;24.192;2023-07-22T14:42:33;21.90;;;6.65;;
61960;SDS011;47923;42.506;24.192;2023-07-22T14:44:59;19.35;;;6.00;;
61960;SDS011;47923;42.506;24.192;2023-07-22T14:47:24;19.55;;;5.78;;
61960;SDS011;47923;42.506;24.192;2023-07-22T14:49:51;19.33;;;6.30;;
61960;SDS011;47923;42.506;24.192;2023-07-22T14:52:17;18.92;;;5.88;;
61960;SDS011;47923;42.506;24.192;2023-07-22T14:54:42;20.35;;;5.78;;
61960;SDS011;47923;42.506;24.192;2023-07-22T14:57:08;23.00;;;5.47;;
61960;SDS011;47923;42.506;24.192;2023-07-22T14:59:33;17.38;;;5.85;;
61960;SDS011;47923;42.506;24.192;2023-07-22T15:01:59;16.30;;;5.50;;
61960;SDS011;47923;42.506;24.192;2023-07-22T15:04:24;19.20;;;5.80;;